This is the latest recevied weather packets stored in our database for station/object KE8AFF-13. If no packets are shown the sender has not sent any weather packets the latest 10 day(s).
| Time | Temp. | Humidity | Pressure | Rain* | Wind** | Luminosity | Snow |
|---|---|---|---|---|---|---|---|
| 1787774283 | 26.67° C | 59% | 1014.1 hPa | 0 mm | - | 579 W/m² | - |
| 1787773982 | 25.56° C | 61% | 1014.1 hPa | 0 mm | - | 387 W/m² | - |
| 1787773681 | 26.67° C | 58% | 1014.5 hPa | 0 mm | - | 220 W/m² | - |
| 1787773377 | 26.11° C | 61% | 1014 hPa | 0 mm | - | 585 W/m² | - |
| 1787773072 | 26.11° C | 60% | 1014.4 hPa | 0 mm | - | 592 W/m² | - |
| 1787772767 | 26.11° C | 62% | 1014.2 hPa | 0 mm | - | 167 W/m² | - |
| 1787772460 | 26.11° C | 62% | 1014.6 hPa | 0 mm | - | 613 W/m² | - |
| 1787772153 | 26.67° C | 60% | 1014.5 hPa | 0 mm | - | 596 W/m² | - |
| 1787771853 | 25.56° C | 61% | 1014.6 hPa | 0 mm | - | 573 W/m² | - |
| 1787771553 | 26.11° C | 61% | 1014.7 hPa | 0 mm | - | 225 W/m² | - |
| 1787771247 | 25.56° C | 63% | 1014.4 hPa | 0 mm | - | 641 W/m² | - |
| 1787770943 | 26.11° C | 64% | 1014.6 hPa | 0 mm | - | 219 W/m² | - |
| 1787770641 | 25.56° C | 63% | 1014.4 hPa | 0 mm | - | 701 W/m² | - |
| 1787770336 | 26.67° C | 61% | 1014.6 hPa | 0 mm | - | 718 W/m² | - |
| 1787770035 | 25.56° C | 63% | 1014.6 hPa | 0 mm | - | 671 W/m² | - |
| 1787769730 | 26.11° C | 63% | 1014.6 hPa | 0 mm | - | 516 W/m² | - |
| 1787769428 | 26.11° C | 61% | 1014.5 hPa | 0 mm | - | 658 W/m² | - |
| 1787769123 | 26.11° C | 62% | 1014.5 hPa | 0 mm | - | 713 W/m² | - |
| 1787768817 | 25° C | 65% | 1014.8 hPa | 0 mm | - | 377 W/m² | - |
| 1787768514 | 25° C | 66% | 1014.8 hPa | 0 mm | - | 272 W/m² | - |
| 1787768210 | 25° C | 64% | 1014.8 hPa | 0 mm | - | 291 W/m² | - |
| 1787767906 | 25.56° C | 66% | 1014.6 hPa | 0 mm | - | 465 W/m² | - |
| 1787767601 | 25.56° C | 66% | 1014.7 hPa | 0 mm | - | 330 W/m² | - |
| 1787767300 | 25.56° C | 66% | 1014.8 hPa | 0 mm | - | 649 W/m² | - |
| 1787766999 | 25.56° C | 64% | 1014.9 hPa | 0 mm | - | 433 W/m² | - |
* Rain latest hour (hover to see other rain measurements)
** Current wind speed in m/s (hover to see current wind gust speed)